createdAt,value
2018-08-10T00:01:45.792Z,73.79
2018-08-10T00:04:15.946Z,74.30
2018-08-10T00:06:45.771Z,74.41
2018-08-10T00:09:15.692Z,74.49
2018-08-10T00:11:45.446Z,75.43
2018-08-10T00:14:15.316Z,75.38
2018-08-10T00:16:45.116Z,75.32
2018-08-10T00:19:15.157Z,74.94
2018-08-10T00:21:45.252Z,75.65
2018-08-10T00:24:15.003Z,75.68
2018-08-10T00:26:46.410Z,75.26
2018-08-10T00:29:16.320Z,75.59
2018-08-10T00:31:46.069Z,75.24
2018-08-10T00:34:16.130Z,75.63
2018-08-10T00:36:46.146Z,74.98
2018-08-10T00:39:18.366Z,75.45
2018-08-10T00:41:48.195Z,75.79
2018-08-10T00:46:46.726Z,76.70
2018-08-10T00:49:16.590Z,76.49
2018-08-10T00:54:14.828Z,76.62
2018-08-10T00:56:44.701Z,76.00
2018-08-10T00:59:14.436Z,76.00
2018-08-10T01:01:44.638Z,76.60
2018-08-10T01:04:14.483Z,75.97
2018-08-10T01:06:44.299Z,76.23
2018-08-10T01:09:14.495Z,76.19
2018-08-10T01:11:44.213Z,76.09
2018-08-10T01:14:14.404Z,76.13
2018-08-10T01:16:47.633Z,76.19
2018-08-10T01:19:17.399Z,76.51
2018-08-10T01:21:47.283Z,76.67
2018-08-10T01:24:17.218Z,76.60
2018-08-10T01:26:46.977Z,77.17
2018-08-10T01:29:16.782Z,76.97
2018-08-10T01:31:46.568Z,76.54
2018-08-10T01:34:16.506Z,76.41
2018-08-10T01:36:46.267Z,76.18
2018-08-10T01:39:16.059Z,75.54
2018-08-10T01:41:45.877Z,76.06
2018-08-10T01:44:15.938Z,75.70
2018-08-10T01:46:45.887Z,75.02
2018-08-10T01:49:15.752Z,75.21
2018-08-10T01:51:45.691Z,74.87
2018-08-10T01:56:43.936Z,74.57
2018-08-10T01:59:13.797Z,73.53
2018-08-10T02:01:43.681Z,72.94
2018-08-10T02:04:13.755Z,73.23
2018-08-10T02:06:43.662Z,73.04
2018-08-10T02:09:13.416Z,72.42
2018-08-10T02:11:45.226Z,72.26
2018-08-10T02:14:15.420Z,73.02
2018-08-10T02:17:17.321Z,72.95
2018-08-10T02:19:47.115Z,73.52
2018-08-10T02:22:17.081Z,73.04
2018-08-10T02:24:46.836Z,72.51
2018-08-10T02:27:16.715Z,73.26
2018-08-10T02:29:46.849Z,73.39
2018-08-10T02:32:16.631Z,73.26
2018-08-10T02:34:49.549Z,73.39
2018-08-10T02:37:19.384Z,73.41
2018-08-10T02:39:53.579Z,74.35
2018-08-10T02:42:24.470Z,73.68
2018-08-10T02:44:55.009Z,74.01
2018-08-10T02:47:25.659Z,74.09
2018-08-10T02:49:56.593Z,73.72
2018-08-10T02:52:26.518Z,74.18
2018-08-10T02:54:56.262Z,73.89
2018-08-10T02:57:26.089Z,74.38
2018-08-10T02:59:55.887Z,73.98
2018-08-10T03:02:27.224Z,74.20
2018-08-10T03:05:01.435Z,73.46
2018-08-10T03:07:31.692Z,74.10
2018-08-10T03:10:10.584Z,73.74
2018-08-10T03:12:41.734Z,73.07
2018-08-10T03:15:18.244Z,73.54
2018-08-10T03:17:48.317Z,73.51
2018-08-10T03:20:19.729Z,73.32
2018-08-10T03:22:49.772Z,72.56
2018-08-10T03:25:19.603Z,72.46
2018-08-10T03:27:49.388Z,72.16
2018-08-10T03:30:19.740Z,72.59
2018-08-10T03:32:49.415Z,71.99
2018-08-10T03:35:19.314Z,69.78
2018-08-10T03:37:49.131Z,67.58
2018-08-10T03:40:19.100Z,65.88
2018-08-10T03:42:48.943Z,63.97
2018-08-10T03:45:18.697Z,63.72
2018-08-10T03:47:48.564Z,62.86
2018-08-10T03:50:18.477Z,61.92
2018-08-10T03:52:48.353Z,60.91
2018-08-10T03:55:18.716Z,59.09
2018-08-10T03:57:48.671Z,58.69
2018-08-10T04:00:18.559Z,57.66
2018-08-10T04:02:50.790Z,56.99
2018-08-10T04:05:21.184Z,55.68
2018-08-10T04:07:50.983Z,56.20
2018-08-10T04:10:23.002Z,54.94
2018-08-10T04:12:53.797Z,54.71
2018-08-10T04:15:23.582Z,54.52
2018-08-10T04:17:54.690Z,54.19
2018-08-10T04:20:26.720Z,52.21
2018-08-10T04:22:56.535Z,52.33
2018-08-10T04:25:26.339Z,51.17
2018-08-10T04:27:56.213Z,50.96
2018-08-10T04:33:18.689Z,49.08
2018-08-10T04:36:15.796Z,48.87
2018-08-10T04:38:47.008Z,48.59
2018-08-10T04:41:20.913Z,49.87
2018-08-10T04:43:51.973Z,49.85
2018-08-10T04:46:22.533Z,50.35
2018-08-10T04:48:52.518Z,50.05
2018-08-10T04:51:22.330Z,49.08
2018-08-10T04:53:52.113Z,50.05
2018-08-10T04:56:22.101Z,50.05
2018-08-10T04:58:52.083Z,49.70
2018-08-10T05:01:22.618Z,49.37
2018-08-10T05:03:52.668Z,50.70
2018-08-10T05:06:22.661Z,56.28
2018-08-10T05:08:52.656Z,54.46
2018-08-10T05:11:22.527Z,50.80
2018-08-10T05:13:52.431Z,48.55
2018-08-10T05:16:23.547Z,47.16
2018-08-10T05:18:53.860Z,48.09
2018-08-10T05:21:23.708Z,47.14
2018-08-10T05:23:53.476Z,48.95
2018-08-10T05:26:23.660Z,47.30
2018-08-10T05:28:53.390Z,44.92
2018-08-10T05:31:23.365Z,44.41
2018-08-10T05:33:53.730Z,43.49
2018-08-10T05:36:23.856Z,41.44
2018-08-10T05:38:56.296Z,40.72
2018-08-10T05:41:26.302Z,41.21
2018-08-10T05:43:59.367Z,43.98
2018-08-10T05:46:29.395Z,42.59
2018-08-10T05:48:59.116Z,41.77
2018-08-10T05:51:28.849Z,40.48
2018-08-10T05:53:58.638Z,40.76
2018-08-10T05:56:28.403Z,39.36
2018-08-10T05:58:58.129Z,38.01
2018-08-10T06:01:28.035Z,38.35
2018-08-10T06:03:58.285Z,37.36
2018-08-10T06:06:33.063Z,38.92
2018-08-10T06:09:04.575Z,37.87
2018-08-10T06:11:34.418Z,36.41
2018-08-10T06:14:04.159Z,38.19
2018-08-10T06:16:34.468Z,35.45
2018-08-10T06:19:04.308Z,35.59
2018-08-10T06:21:34.274Z,36.84
2018-08-10T06:24:04.707Z,37.69
2018-08-10T06:26:35.168Z,35.70
2018-08-10T06:29:05.717Z,35.63
2018-08-10T06:31:35.873Z,35.69
2018-08-10T06:34:06.347Z,36.79
2018-08-10T06:36:36.303Z,37.67
2018-08-10T06:39:12.469Z,35.79
2018-08-10T06:41:42.563Z,38.05
2018-08-10T06:44:12.419Z,36.36
2018-08-10T06:46:42.491Z,36.21
2018-08-10T06:49:13.284Z,35.49
2018-08-10T06:51:43.427Z,34.78
2018-08-10T06:54:13.328Z,38.03
2018-08-10T06:56:43.114Z,38.62
2018-08-10T06:59:13.469Z,38.89
2018-08-10T07:01:43.333Z,38.52
2018-08-10T07:04:13.957Z,35.25
2018-08-10T07:06:43.975Z,33.76
2018-08-10T07:09:14.765Z,35.46
2018-08-10T07:11:47.225Z,34.14
2018-08-10T07:14:22.197Z,35.83
2018-08-10T07:16:56.802Z,36.08
2018-08-10T07:19:27.735Z,32.19
2018-08-10T07:21:57.740Z,32.25
2018-08-10T07:24:27.681Z,34.42
2018-08-10T07:27:02.888Z,34.01
2018-08-10T07:29:33.241Z,33.01
2018-08-10T07:32:03.534Z,32.03
2018-08-10T07:34:33.470Z,33.50
2018-08-10T07:37:03.456Z,35.57
2018-08-10T07:39:33.400Z,34.43
2018-08-10T07:42:05.761Z,35.30
2018-08-10T07:44:36.722Z,35.30
2018-08-10T07:47:07.026Z,37.02
2018-08-10T07:49:38.025Z,39.82
2018-08-10T07:52:08.488Z,40.66
2018-08-10T07:54:40.925Z,44.42
2018-08-10T07:57:10.985Z,44.47
2018-08-10T07:59:40.983Z,45.71
2018-08-10T08:02:11.108Z,42.48
2018-08-10T08:04:41.068Z,44.87
2018-08-10T08:07:11.015Z,43.70
2018-08-10T08:09:40.970Z,43.48
2018-08-10T08:12:11.384Z,44.34
2018-08-10T08:14:41.143Z,43.36
2018-08-10T08:17:11.060Z,44.51
2018-08-10T08:19:40.965Z,44.20
2018-08-10T08:22:20.460Z,44.97
2018-08-10T08:24:50.394Z,41.66
2018-08-10T08:27:20.899Z,43.38
2018-08-10T08:29:51.003Z,44.95
2018-08-10T08:32:20.930Z,45.31
2018-08-10T08:34:51.040Z,44.01
2018-08-10T08:37:20.948Z,43.74
2018-08-10T08:41:04.981Z,45.96
2018-08-10T08:46:02.488Z,42.12
2018-08-10T08:48:35.307Z,47.91
2018-08-10T08:51:07.233Z,48.07
2018-08-10T08:53:43.224Z,48.53
2018-08-10T08:56:14.871Z,48.83
2018-08-10T08:58:45.879Z,48.68
2018-08-10T09:01:16.200Z,49.40
2018-08-10T09:05:03.161Z,49.50
2018-08-10T09:07:36.950Z,48.56
2018-08-10T09:10:14.828Z,48.56
2018-08-10T09:12:44.677Z,50.40
2018-08-10T09:15:16.235Z,48.78
2018-08-10T09:17:46.052Z,49.40
2018-08-10T09:20:15.837Z,49.52
2018-08-10T09:22:45.585Z,50.76
2018-08-10T09:25:17.369Z,48.35
2018-08-10T09:27:47.151Z,47.77
2018-08-10T09:30:18.583Z,49.05
2018-08-10T09:32:48.477Z,46.92
2018-08-10T09:35:18.221Z,47.58
2018-08-10T09:37:53.700Z,47.02
2018-08-10T09:40:23.416Z,46.76
2018-08-10T09:42:53.223Z,45.15
2018-08-10T09:45:23.233Z,44.41
2018-08-10T09:47:53.069Z,45.55
2018-08-10T09:50:23.176Z,43.03
2018-08-10T09:52:58.734Z,42.81
2018-08-10T09:55:34.140Z,43.09
2018-08-10T09:58:07.559Z,44.76
2018-08-10T10:00:42.612Z,43.46
2018-08-10T10:03:18.100Z,45.59
2018-08-10T10:05:48.985Z,44.92
2018-08-10T10:08:20.348Z,45.26
2018-08-10T10:10:51.267Z,45.43
2018-08-10T10:13:21.052Z,45.44
2018-08-10T10:15:50.853Z,45.45
2018-08-10T10:18:20.723Z,42.91
2018-08-10T10:20:50.651Z,44.22
2018-08-10T10:23:20.427Z,45.46
2018-08-10T10:25:50.286Z,46.38
2018-08-10T10:28:20.595Z,44.92
2018-08-10T10:30:50.337Z,44.25
2018-08-10T10:33:20.029Z,43.79
2018-08-10T10:35:49.738Z,45.33
2018-08-10T10:38:20.153Z,45.51
2018-08-10T10:40:49.900Z,45.13
2018-08-10T10:43:21.035Z,46.10
2018-08-10T10:45:50.690Z,45.47
2018-08-10T10:48:20.413Z,46.16
2018-08-10T10:50:50.189Z,45.79
2018-08-10T10:53:20.257Z,45.57
2018-08-10T10:55:49.900Z,46.88
2018-08-10T10:58:19.890Z,48.08
2018-08-10T11:00:50.208Z,47.10
2018-08-10T11:03:21.249Z,46.08
2018-08-10T11:05:50.966Z,44.54
2018-08-10T11:08:20.773Z,46.56
2018-08-10T11:10:51.179Z,47.09
2018-08-10T11:13:20.966Z,47.94
2018-08-10T11:15:50.843Z,47.37
2018-08-10T11:18:22.350Z,47.03
2018-08-10T11:20:52.126Z,44.58
2018-08-10T11:23:21.778Z,45.18
2018-08-10T11:25:53.069Z,45.64
2018-08-10T11:28:22.731Z,46.01
2018-08-10T11:30:52.499Z,47.04
2018-08-10T11:33:22.221Z,46.78
2018-08-10T11:35:52.120Z,46.61
2018-08-10T11:38:22.225Z,47.78
2018-08-10T11:40:52.213Z,47.59
2018-08-10T11:43:22.983Z,47.06
2018-08-10T11:45:52.694Z,45.94
2018-08-10T11:48:25.739Z,45.40
2018-08-10T11:50:55.532Z,45.87
2018-08-10T11:53:25.353Z,45.14
2018-08-10T11:55:55.213Z,47.01
2018-08-10T11:58:25.724Z,47.37
2018-08-10T12:00:55.816Z,48.17
2018-08-10T12:03:25.739Z,46.99
2018-08-10T12:05:56.580Z,47.57
2018-08-10T12:08:26.369Z,47.03
2018-08-10T12:10:56.716Z,46.94
2018-08-10T12:13:26.455Z,47.46
2018-08-10T12:15:57.358Z,46.46
2018-08-10T12:18:28.417Z,46.38
2018-08-10T12:20:58.220Z,46.74
2018-08-10T12:23:28.002Z,45.86
2018-08-10T12:25:57.850Z,46.98
2018-08-10T12:28:27.601Z,47.20
2018-08-10T12:30:57.541Z,46.50
2018-08-10T12:33:27.330Z,49.55
2018-08-10T12:35:57.071Z,50.28
2018-08-10T12:38:26.765Z,48.62
2018-08-10T12:40:56.361Z,48.95
2018-08-10T12:43:26.222Z,48.04
2018-08-10T12:45:55.953Z,49.27
2018-08-10T12:48:25.764Z,50.54
2018-08-10T12:50:55.672Z,48.95
2018-08-10T12:53:29.931Z,47.42
2018-08-10T12:55:59.964Z,49.82
2018-08-10T12:58:29.864Z,49.79
2018-08-10T13:00:59.706Z,50.16
2018-08-10T13:03:30.816Z,50.63
2018-08-10T13:06:01.730Z,50.25
2018-08-10T13:08:31.910Z,49.52
2018-08-10T13:11:01.797Z,50.41
2018-08-10T13:13:32.254Z,50.39
2018-08-10T13:16:02.385Z,51.44
2018-08-10T13:18:32.202Z,52.64
2018-08-10T13:21:17.473Z,51.40
2018-08-10T13:23:47.344Z,52.06
2018-08-10T13:26:17.056Z,53.45
2018-08-10T13:29:03.691Z,53.79
2018-08-10T13:31:33.610Z,54.18
2018-08-10T13:34:04.153Z,53.36
2018-08-10T13:37:24.276Z,53.17
2018-08-10T13:39:55.508Z,52.92
2018-08-10T13:42:25.622Z,52.20
2018-08-10T13:44:56.058Z,53.53
2018-08-10T13:47:25.779Z,51.83
2018-08-10T13:49:55.628Z,52.70
2018-08-10T13:52:26.058Z,53.99
2018-08-10T13:54:55.758Z,51.92
2018-08-10T13:57:25.397Z,52.11
2018-08-10T13:59:55.716Z,51.78
2018-08-10T14:02:26.742Z,49.93
2018-08-10T14:04:57.189Z,51.44
2018-08-10T14:07:27.828Z,50.05
2018-08-10T14:09:57.635Z,50.12
2018-08-10T14:12:27.671Z,50.27
2018-08-10T14:14:57.425Z,50.27
2018-08-10T14:17:28.060Z,49.99
2018-08-10T14:19:57.747Z,49.67
2018-08-10T14:22:27.593Z,48.86
2018-08-10T14:24:57.322Z,49.94
2018-08-10T14:27:27.050Z,51.52
2018-08-10T14:29:57.017Z,51.98
2018-08-10T14:32:26.864Z,51.70
2018-08-10T14:34:56.656Z,51.38
2018-08-10T14:37:26.704Z,51.38
2018-08-10T14:39:56.816Z,51.81
2018-08-10T14:42:26.905Z,50.80
2018-08-10T14:44:56.934Z,51.46
2018-08-10T14:47:27.603Z,50.99
2018-08-10T14:49:58.659Z,50.95
2018-08-10T14:52:30.696Z,50.97
2018-08-10T14:55:02.669Z,51.46
2018-08-10T14:57:35.759Z,51.11
2018-08-10T15:00:12.368Z,49.70
2018-08-10T15:02:42.051Z,50.66
2018-08-10T15:05:12.505Z,51.24
2018-08-10T15:07:42.729Z,52.08
2018-08-10T15:10:18.910Z,51.34
2018-08-10T15:12:48.805Z,50.66
2018-08-10T15:15:20.498Z,51.30
2018-08-10T15:17:51.724Z,51.62
2018-08-10T15:20:22.168Z,53.08
2018-08-10T15:22:52.173Z,52.15
2018-08-10T15:25:21.996Z,52.15
2018-08-10T15:27:52.346Z,53.34
2018-08-10T15:30:22.081Z,53.04
2018-08-10T15:32:52.009Z,52.41
2018-08-10T15:35:22.001Z,53.34
2018-08-10T15:37:52.465Z,55.09
2018-08-10T15:40:22.438Z,53.86
2018-08-10T15:42:54.939Z,54.72
2018-08-10T15:45:25.579Z,54.92
2018-08-10T15:47:58.615Z,55.46
2018-08-10T15:50:29.177Z,55.89
2018-08-10T15:52:58.885Z,55.80
2018-08-10T15:55:28.600Z,55.09
2018-08-10T15:58:00.660Z,55.80
2018-08-10T16:00:42.351Z,55.34
2018-08-10T16:03:12.295Z,55.10
2018-08-10T16:05:42.042Z,55.85
2018-08-10T16:08:15.710Z,55.08
2018-08-10T16:10:45.450Z,55.69
2018-08-10T16:13:15.206Z,56.49
2018-08-10T16:15:44.892Z,57.68
2018-08-10T16:18:14.735Z,57.94
2018-08-10T16:20:46.088Z,58.55
2018-08-10T16:23:16.834Z,57.52
2018-08-10T16:25:46.535Z,58.65
2018-08-10T16:28:16.567Z,58.49
2018-08-10T16:30:46.277Z,59.36
2018-08-10T16:33:17.296Z,58.52
2018-08-10T16:35:46.995Z,58.15
2018-08-10T16:38:17.776Z,57.46
2018-08-10T16:40:50.010Z,57.05
2018-08-10T16:43:22.955Z,57.51
2018-08-10T16:45:54.281Z,58.01
2018-08-10T16:48:24.128Z,57.26
2018-08-10T16:50:53.749Z,57.95
2018-08-10T16:53:23.599Z,58.40
2018-08-10T16:55:54.131Z,58.92
2018-08-10T16:58:24.520Z,59.85
2018-08-10T17:00:54.704Z,61.17
2018-08-10T17:03:24.973Z,60.48
2018-08-10T17:05:54.669Z,60.87
2018-08-10T17:08:24.540Z,61.22
2018-08-10T17:10:54.935Z,61.45
2018-08-10T17:13:26.874Z,62.28
2018-08-10T17:15:56.735Z,61.85
2018-08-10T17:18:27.074Z,61.96
2018-08-10T17:20:56.808Z,62.11
2018-08-10T17:23:28.269Z,62.39
2018-08-10T17:25:58.112Z,62.65
2018-08-10T17:28:27.748Z,62.33
2018-08-10T17:30:57.557Z,62.27
2018-08-10T17:33:27.371Z,62.23
2018-08-10T17:35:57.076Z,63.29
2018-08-10T17:38:26.841Z,62.80
2018-08-10T17:40:56.685Z,62.85
2018-08-10T17:43:26.497Z,63.11
2018-08-10T17:45:56.301Z,62.25
2018-08-10T17:48:26.099Z,62.82
2018-08-10T17:50:56.100Z,61.95
2018-08-10T17:53:25.893Z,61.74
2018-08-10T17:55:57.426Z,60.51
2018-08-10T17:58:27.102Z,61.64
2018-08-10T18:00:56.809Z,61.80
2018-08-10T18:03:43.752Z,61.73
2018-08-10T18:06:14.508Z,61.21
2018-08-10T18:08:44.430Z,61.16
2018-08-10T18:11:14.064Z,61.25
2018-08-10T18:13:43.910Z,61.30
2018-08-10T18:16:13.876Z,60.88
2018-08-10T18:18:43.923Z,60.79
2018-08-10T18:21:15.085Z,61.71
2018-08-10T18:23:44.960Z,61.40
2018-08-10T18:26:16.452Z,61.35
2018-08-10T18:28:49.285Z,60.61
2018-08-10T18:31:23.098Z,61.56
2018-08-10T18:33:53.818Z,61.92
2018-08-10T18:36:24.823Z,62.54
2018-08-10T18:38:55.248Z,62.56
2018-08-10T18:41:25.172Z,63.04
2018-08-10T18:44:16.333Z,64.40
2018-08-10T18:46:46.310Z,64.53
2018-08-10T18:49:16.090Z,64.66
2018-08-10T18:51:46.419Z,64.32
2018-08-10T18:54:16.905Z,64.30
2018-08-10T18:56:47.122Z,64.47
2018-08-10T18:59:17.123Z,63.86
2018-08-10T19:01:48.172Z,64.58
2018-08-10T19:04:25.717Z,64.19
2018-08-10T19:07:06.929Z,64.80
2018-08-10T19:10:03.909Z,63.57
2018-08-10T19:12:43.918Z,63.99
2018-08-10T19:15:25.886Z,64.54
2018-08-10T19:17:57.724Z,64.32
2018-08-10T19:20:27.462Z,65.33
2018-08-10T19:22:57.442Z,65.26
2018-08-10T19:25:28.231Z,64.90
2018-08-10T19:27:58.437Z,65.43
2018-08-10T19:30:28.173Z,65.26
2018-08-10T19:32:58.449Z,64.94
2018-08-10T19:35:30.380Z,65.71
2018-08-10T19:38:00.229Z,65.35
2018-08-10T19:40:30.492Z,64.63
2018-08-10T19:43:01.716Z,64.61
2018-08-10T19:45:35.260Z,63.62
2018-08-10T19:48:07.580Z,64.25
2018-08-10T19:53:44.919Z,63.79
2018-08-10T19:56:16.097Z,63.41
2018-08-10T19:58:48.530Z,62.72
2018-08-10T20:01:19.108Z,63.18
2018-08-10T20:03:50.404Z,64.33
2018-08-10T20:06:20.079Z,64.86
2018-08-10T20:08:52.739Z,65.48
2018-08-10T20:11:22.903Z,66.13
2018-08-10T20:13:55.003Z,66.42
2018-08-10T20:16:24.810Z,66.56
2018-08-10T20:18:55.950Z,66.59
2018-08-10T20:21:25.989Z,66.95
2018-08-10T20:23:59.795Z,67.81
2018-08-10T20:26:29.654Z,68.41
2018-08-10T20:29:03.136Z,67.62
2018-08-10T20:31:33.885Z,67.89
2018-08-10T20:34:03.977Z,68.71
2018-08-10T20:36:34.287Z,68.52
2018-08-10T20:39:04.739Z,68.85
2018-08-10T20:41:34.843Z,68.86
2018-08-10T20:44:06.063Z,68.58
2018-08-10T20:46:37.046Z,68.88
2018-08-10T20:49:10.283Z,69.06
2018-08-10T20:51:39.988Z,69.05
2018-08-10T20:54:09.922Z,69.67
2018-08-10T20:56:39.688Z,70.02
2018-08-10T20:59:09.466Z,69.25
2018-08-10T21:01:39.237Z,69.54
2018-08-10T21:04:09.129Z,69.95
2018-08-10T21:06:40.877Z,69.98
2018-08-10T21:09:14.182Z,69.45
2018-08-10T21:11:45.323Z,69.66
2018-08-10T21:14:15.752Z,69.82
2018-08-10T21:16:45.666Z,70.07
2018-08-10T21:19:15.651Z,70.76
2018-08-10T21:21:45.433Z,71.02
2018-08-10T21:24:15.261Z,70.90
2018-08-10T21:26:45.085Z,70.71
2018-08-10T21:29:14.869Z,70.57
2018-08-10T21:31:45.660Z,70.99
2018-08-10T21:34:15.581Z,71.33
2018-08-10T21:36:45.477Z,71.59
2018-08-10T21:39:15.215Z,71.30
2018-08-10T21:41:44.985Z,71.32
2018-08-10T21:44:14.724Z,71.50
2018-08-10T21:46:44.661Z,72.17
2018-08-10T21:49:14.414Z,71.75
2018-08-10T21:51:45.939Z,72.23
2018-08-10T21:54:33.738Z,71.96
2018-08-10T21:57:04.485Z,72.72
2018-08-10T21:59:34.505Z,72.91
2018-08-10T22:02:04.730Z,72.65
2018-08-10T22:04:34.490Z,73.50
2018-08-10T22:07:04.688Z,73.59
2018-08-10T22:09:36.724Z,72.86
2018-08-10T22:12:13.913Z,73.25
2018-08-10T22:14:50.028Z,73.16
2018-08-10T22:17:24.933Z,73.37
2018-08-10T22:20:14.870Z,73.11
2018-08-10T22:22:45.597Z,73.65
2018-08-10T22:25:16.323Z,73.80
2018-08-10T22:27:46.147Z,73.33
2018-08-10T22:30:16.634Z,73.90
2018-08-10T22:32:46.672Z,73.85
2018-08-10T22:35:16.727Z,73.79
2018-08-10T22:37:46.732Z,73.35
2018-08-10T22:40:16.580Z,74.20
2018-08-10T22:42:46.541Z,73.53
2018-08-10T22:45:16.347Z,74.04
2018-08-10T22:47:46.423Z,74.06
2018-08-10T22:50:16.260Z,73.67
2018-08-10T22:52:46.032Z,74.54
2018-08-10T22:55:16.206Z,74.02
2018-08-10T22:57:46.210Z,74.23
2018-08-10T23:00:15.977Z,74.21
2018-08-10T23:02:45.700Z,74.87
2018-08-10T23:05:15.747Z,74.62
2018-08-10T23:07:45.695Z,74.00
2018-08-10T23:10:16.692Z,74.29
2018-08-10T23:12:46.562Z,74.46
2018-08-10T23:15:16.495Z,74.13
2018-08-10T23:17:46.486Z,74.13
2018-08-10T23:20:17.553Z,74.87
2018-08-10T23:22:48.734Z,74.46
2018-08-10T23:25:18.565Z,74.82
2018-08-10T23:27:51.170Z,75.36
2018-08-10T23:30:21.178Z,75.60
2018-08-10T23:32:50.916Z,75.69
2018-08-10T23:35:21.689Z,75.77
2018-08-10T23:37:51.558Z,76.20
2018-08-10T23:40:21.378Z,76.07
2018-08-10T23:42:51.220Z,75.74
2018-08-10T23:45:21.090Z,75.96
2018-08-10T23:47:51.913Z,76.29
2018-08-10T23:50:23.075Z,76.30
2018-08-10T23:52:52.939Z,75.78
2018-08-10T23:55:22.747Z,75.16
2018-08-10T23:57:52.542Z,75.13
